GES weather

General Santos International Airport
General Santos, South Cotabato Province, Philippines

Public forecast

Using degrees Celsius for public forecast. Weather courtesy of forecast.io.

METAR (pilot weather report)

Retrieved 2019/03/26 09:00 UTC (50 minutes ago):

RPMR 260900Z 15004KT 9999 FEW018CB SCT080 31/23 Q1012 NOSIG RMK A2988 CB NE SW QDS

TAF (pilot weather forecast)

Forecast is more than 12 hours old.

Retrieved 2019/03/25 06:00 UTC (1 day ago):

TAF RPMR 250500Z 2506/2606 04008KT 9999 FEW018 SCT250 TEMPO 2506/2512 02012G16KT FEW015CB FEW018 BKN080